Time;durP1;ratioP1;P1;durP2;ratioP2;P2;SDS_P1;SDS_P2;PMS_P1;PMS_P2;Temp;Humidity;BMP_temperature;BMP_pressure;BME280_temperature;BME280_humidity;BME280_pressure;Samples;Min_cycle;Max_cycle;Signal;HPM_P1;HPM_P2
2021/10/15 00:01:44;;;;;;;6.50;5.80;;;10.40;76.90;;;9.92;63.80;95376.63;5034337;28;20306;-81
2021/10/15 00:04:12;;;;;;;6.38;5.40;;;10.40;77.00;;;9.93;63.62;95378.25;5038466;28;20193;-81
2021/10/15 00:06:39;;;;;;;7.47;5.13;;;10.40;76.90;;;9.89;63.74;95372.56;5047855;28;20307;-80
2021/10/15 00:09:06;;;;;;;5.85;5.10;;;10.40;76.90;;;9.92;63.94;95371.38;5047709;28;20573;-81
2021/10/15 00:11:33;;;;;;;6.85;5.30;;;10.40;76.90;;;9.88;63.85;95362.25;5030975;28;20227;-80
2021/10/15 00:14:00;;;;;;;6.15;5.00;;;10.50;77.00;;;9.91;63.80;95367.97;5050021;28;20752;-81
2021/10/15 00:16:28;;;;;;;6.57;5.40;;;10.50;77.00;;;9.92;63.83;95363.53;5066071;28;20220;-79
2021/10/15 00:18:56;;;;;;;6.47;5.38;;;10.50;77.20;;;9.90;63.58;95360.28;5034449;28;20199;-79
2021/10/15 00:21:24;;;;;;;6.40;5.72;;;10.50;77.00;;;9.91;63.75;95361.88;5034403;28;20212;-80
2021/10/15 00:23:51;;;;;;;5.40;4.90;;;10.40;76.90;;;9.92;63.70;95359.13;5051039;28;20242;-80
2021/10/15 00:26:20;;;;;;;6.80;5.95;;;10.50;77.00;;;9.92;63.71;95364.34;5034582;28;20315;-81
2021/10/15 00:28:47;;;;;;;5.88;5.13;;;10.40;76.90;;;9.91;63.92;95362.72;5021457;28;20227;-80
2021/10/15 00:31:14;;;;;;;6.15;5.30;;;10.40;77.00;;;9.89;63.57;95359.47;5037729;28;20322;-81
2021/10/15 00:33:41;;;;;;;7.90;5.88;;;10.50;77.00;;;9.91;64.13;95361.88;5037546;28;20189;-81
2021/10/15 00:36:08;;;;;;;7.32;5.78;;;10.50;77.00;;;9.89;63.95;95363.91;5021108;28;20220;-80
2021/10/15 00:38:36;;;;;;;6.22;5.55;;;10.40;77.00;;;9.89;64.05;95361.28;5037495;28;20658;-80
2021/10/15 00:41:03;;;;;;;6.72;5.90;;;10.40;77.00;;;9.85;64.73;95350.34;5038333;28;20214;-80
2021/10/15 00:43:30;;;;;;;6.70;5.70;;;10.40;77.10;;;9.88;64.67;95352.59;5073311;28;20269;-80
2021/10/15 00:45:57;;;;;;;6.93;5.88;;;10.40;77.20;;;9.89;64.63;95359.47;5057454;28;20639;-80
2021/10/15 00:48:25;;;;;;;7.28;6.18;;;10.50;77.20;;;9.85;64.42;95350.34;5040338;28;20195;-80
2021/10/15 00:50:52;;;;;;;5.97;5.28;;;10.50;77.20;;;9.90;64.24;95352.44;5036577;28;20309;-80
2021/10/15 00:53:20;;;;;;;6.70;5.25;;;10.50;77.30;;;9.86;64.48;95343.28;5037397;28;20258;-80
2021/10/15 00:55:47;;;;;;;5.25;4.75;;;10.50;77.30;;;9.92;64.39;95338.16;5028273;28;20263;-80
2021/10/15 00:58:15;;;;;;;5.88;5.25;;;10.50;77.30;;;9.90;64.37;95336.72;5040483;28;20199;-80
2021/10/15 01:00:43;;;;;;;6.57;5.22;;;10.50;77.30;;;9.91;64.53;95344.38;5040962;28;20226;-81
2021/10/15 01:03:10;;;;;;;5.43;4.63;;;10.50;77.30;;;9.90;64.77;95324.41;5056882;28;20216;-80
2021/10/15 01:05:37;;;;;;;6.28;5.07;;;10.50;77.40;;;9.92;64.20;95330.28;5073233;28;20238;-79
2021/10/15 01:08:04;;;;;;;6.28;4.90;;;10.50;77.40;;;9.93;64.70;95321.41;5054960;28;20242;-81
2021/10/15 01:10:32;;;;;;;6.25;5.25;;;10.50;77.40;;;9.96;64.44;95319.44;5020953;28;20224;-81
2021/10/15 01:13:00;;;;;;;5.55;4.88;;;10.50;77.30;;;9.94;64.42;95311.78;5055517;28;20213;-81
2021/10/15 01:15:28;;;;;;;5.60;4.85;;;10.50;77.40;;;9.96;64.36;95315.03;5041056;28;20250;-81
2021/10/15 01:17:56;;;;;;;4.70;4.25;;;10.50;77.40;;;9.96;64.44;95311.59;5040498;28;20740;-80
2021/10/15 01:20:23;;;;;;;5.90;5.05;;;10.50;77.40;;;10.00;64.61;95308.44;5056876;28;20703;-80
2021/10/15 01:22:50;;;;;;;5.75;4.93;;;10.50;77.40;;;10.00;64.24;95310.25;5056252;28;20273;-79
2021/10/15 01:25:18;;;;;;;6.00;4.72;;;10.50;77.40;;;10.04;64.19;95308.88;5020823;28;20669;-80
2021/10/15 01:27:45;;;;;;;5.35;4.85;;;10.50;77.40;;;10.02;64.60;95303.84;5053594;28;20674;-81
2021/10/15 01:30:13;;;;;;;5.07;4.55;;;10.50;77.40;;;10.04;64.39;95295.78;5033819;28;20643;-80
2021/10/15 01:32:40;;;;;;;5.47;4.78;;;10.50;77.40;;;10.04;64.32;95290.53;5049415;28;20281;-80
2021/10/15 01:35:07;;;;;;;5.43;4.55;;;10.50;77.50;;;10.05;64.14;95285.13;5057156;28;20199;-79
2021/10/15 01:37:34;;;;;;;6.35;5.07;;;10.50;77.30;;;10.01;64.40;95281.25;5053436;28;20240;-81
2021/10/15 01:40:02;;;;;;;6.28;5.40;;;10.60;77.30;;;10.03;64.32;95287.13;5036796;28;20591;-79
2021/10/15 01:45:15;;;;;;;6.07;5.35;;;10.60;77.40;;;10.03;64.60;95284.50;5039527;28;20204;-79
2021/10/15 01:47:42;;;;;;;6.03;5.35;;;10.60;77.40;;;10.02;64.40;95285.50;5037099;28;20314;-80
2021/10/15 01:50:09;;;;;;;6.53;5.30;;;10.70;77.50;;;10.05;64.33;95279.06;5036311;28;20204;-79
2021/10/15 01:52:37;;;;;;;5.70;5.10;;;10.50;77.40;;;10.05;64.48;95285.13;5035985;28;20224;-81
2021/10/15 01:55:10;;;;;;;6.15;5.20;;;10.60;77.50;;;10.05;64.41;95273.84;5020747;28;20200;-80
2021/10/15 01:57:38;;;;;;;6.13;5.15;;;10.60;77.60;;;10.08;64.33;95282.16;5053279;28;20265;-81
2021/10/15 02:00:08;;;;;;;5.78;5.13;;;10.60;77.50;;;10.12;64.37;95279.16;5049592;28;20680;-80
2021/10/15 02:02:43;;;;;;;6.80;5.55;;;10.60;77.50;;;10.09;64.44;95269.84;5066704;28;20706;-80
2021/10/15 02:05:13;;;;;;;6.85;5.22;;;10.60;77.40;;;10.12;64.37;95271.28;5066823;28;20576;-80
2021/10/15 02:07:43;;;;;;;7.70;5.30;;;10.60;77.40;;;10.13;64.21;95273.75;5066079;28;20225;-79
2021/10/15 02:10:12;;;;;;;6.07;5.22;;;10.60;77.40;;;10.13;64.36;95272.94;5057839;28;20235;-80
2021/10/15 02:12:41;;;;;;;6.50;5.15;;;10.60;77.40;;;10.12;64.19;95255.56;5036195;28;20327;-79
2021/10/15 02:15:11;;;;;;;5.18;4.68;;;10.60;78.10;;;10.14;64.15;95261.44;5036064;28;20708;-80
2021/10/15 02:17:40;;;;;;;5.40;4.78;;;10.70;77.40;;;10.11;64.32;95252.16;5035641;28;20331;-79
2021/10/15 02:20:12;;;;;;;6.55;4.55;;;10.70;77.40;;;10.12;64.26;95248.53;5033415;28;20246;-80
2021/10/15 02:22:45;;;;;;;5.88;5.15;;;10.60;77.40;;;10.14;64.54;95249.16;5052248;28;20208;-80
2021/10/15 02:25:15;;;;;;;5.65;5.03;;;10.70;77.50;;;10.15;64.44;95250.78;5051128;28;20341;-79
2021/10/15 02:27:44;;;;;;;5.65;4.43;;;10.60;77.40;;;10.18;64.22;95254.84;5033840;28;20219;-79
2021/10/15 02:30:14;;;;;;;5.38;4.57;;;10.70;77.40;;;10.15;64.26;95256.03;5018016;28;20250;-79
2021/10/15 02:32:42;;;;;;;4.97;4.13;;;10.70;77.50;;;10.19;64.50;95261.72;5063127;28;20237;-79
2021/10/15 02:35:11;;;;;;;4.78;4.28;;;10.70;77.40;;;10.20;64.36;95260.72;5063615;28;20195;-79
2021/10/15 02:37:40;;;;;;;5.50;4.60;;;10.70;77.40;;;10.19;64.53;95251.22;5033062;28;20671;-79
2021/10/15 02:40:08;;;;;;;4.95;4.40;;;10.80;77.50;;;10.21;64.32;95250.06;5018445;28;20230;-79
2021/10/15 02:42:37;;;;;;;4.95;3.83;;;10.70;77.40;;;10.20;64.39;95252.88;5030008;28;20216;-81
2021/10/15 02:45:06;;;;;;;6.35;4.38;;;10.80;77.50;;;10.22;64.35;95250.88;5057301;28;20303;-79
2021/10/15 02:47:33;;;;;;;6.32;4.85;;;10.70;77.40;;;10.21;64.33;95249.25;5018346;28;20216;-81
2021/10/15 02:50:00;;;;;;;5.07;4.25;;;10.70;77.40;;;10.21;64.26;95250.06;5033251;28;20207;-80
2021/10/15 02:52:28;;;;;;;5.35;4.53;;;10.70;77.40;;;10.22;64.51;95249.06;5049605;28;20564;-79
2021/10/15 02:54:55;;;;;;;5.22;4.70;;;10.70;77.40;;;10.20;64.62;95245.81;5056494;28;20224;-79
2021/10/15 02:57:23;;;;;;;5.50;4.43;;;10.70;77.30;;;10.22;64.33;95245.66;5058854;28;20267;-79
2021/10/15 02:59:50;;;;;;;5.15;4.38;;;10.70;77.40;;;10.21;64.33;95236.94;5050045;28;20568;-79
2021/10/15 03:02:19;;;;;;;4.32;3.67;;;10.80;77.50;;;10.20;64.16;95227.44;5040245;28;20231;-79
2021/10/15 03:04:46;;;;;;;5.00;4.43;;;10.80;77.50;;;10.23;63.84;95228.94;5049902;28;20196;-79
2021/10/15 03:07:14;;;;;;;5.28;4.07;;;10.70;77.30;;;10.22;64.17;95224.66;5051726;28;20216;-81
2021/10/15 03:09:41;;;;;;;4.65;4.10;;;10.70;77.30;;;10.24;64.40;95223.50;5033136;28;20287;-79
2021/10/15 03:12:09;;;;;;;4.78;4.18;;;10.80;77.50;;;10.24;64.14;95213.00;5033320;28;20572;-79
2021/10/15 03:14:36;;;;;;;5.13;4.32;;;10.70;77.30;;;10.27;64.27;95211.03;5031671;28;20222;-80
2021/10/15 03:17:04;;;;;;;4.75;4.25;;;10.70;77.40;;;10.25;64.04;95219.88;5031292;28;20653;-79
2021/10/15 03:19:33;;;;;;;4.15;3.75;;;10.80;77.50;;;10.27;64.03;95226.75;5017269;28;20200;-80
2021/10/15 03:22:01;;;;;;;4.65;4.00;;;10.70;77.40;;;10.27;63.83;95229.38;5032540;28;20232;-79
2021/10/15 03:24:28;;;;;;;4.57;3.78;;;10.80;77.50;;;10.25;63.91;95224.28;5048969;28;20219;-79
2021/10/15 03:26:55;;;;;;;4.90;4.40;;;10.80;77.40;;;10.21;64.03;95226.47;5048862;28;20216;-79
2021/10/15 03:29:23;;;;;;;4.20;3.45;;;10.80;77.40;;;10.20;64.20;95216.16;5048585;28;20254;-79
2021/10/15 03:31:50;;;;;;;4.93;3.97;;;10.80;77.40;;;10.19;64.10;95225.03;5016522;28;20224;-80
2021/10/15 03:34:17;;;;;;;4.13;3.47;;;10.70;77.30;;;10.22;64.35;95224.66;5015552;28;20206;-81
2021/10/15 03:36:44;;;;;;;4.30;3.90;;;10.70;77.30;;;10.19;64.22;95225.03;5029147;28;20303;-80
2021/10/15 03:39:12;;;;;;;4.60;4.20;;;10.80;77.40;;;10.19;64.24;95228.47;5015366;28;20193;-80
2021/10/15 03:41:39;;;;;;;5.90;3.90;;;10.80;77.50;;;10.19;64.30;95228.47;5031352;28;20248;-80
2021/10/15 03:44:06;;;;;;;4.88;4.35;;;10.70;77.40;;;10.14;64.51;95222.94;5030415;28;20235;-81
2021/10/15 03:46:33;;;;;;;4.82;4.20;;;10.70;77.40;;;10.20;64.46;95226.66;5049158;28;20251;-80
2021/10/15 03:49:01;;;;;;;4.05;3.60;;;10.70;77.40;;;10.19;64.04;95227.66;5047421;28;20230;-80
2021/10/15 03:51:28;;;;;;;4.30;3.88;;;10.70;77.40;;;10.20;64.22;95224.03;5030579;28;20646;-80
2021/10/15 03:53:55;;;;;;;4.43;4.03;;;10.70;77.40;;;10.21;64.27;95225.66;5048004;28;20191;-80
2021/10/15 03:56:22;;;;;;;4.55;3.85;;;10.70;77.40;;;10.20;64.41;95226.66;5030212;28;20331;-79
2021/10/15 03:58:49;;;;;;;4.53;4.03;;;10.70;77.40;;;10.18;64.15;95224.22;5030888;28;20278;-81
2021/10/15 04:01:16;;;;;;;4.30;3.65;;;10.70;77.40;;;10.19;64.11;95223.22;5033122;28;20705;-82
2021/10/15 04:03:43;;;;;;;4.78;3.85;;;10.70;77.40;;;10.17;64.19;95221.78;5034750;28;20200;-82
2021/10/15 04:06:11;;;;;;;5.18;4.68;;;10.70;77.30;;;10.17;64.25;95225.22;5030807;28;20220;-80
2021/10/15 04:08:38;;;;;;;6.68;6.07;;;10.70;77.30;;;10.15;64.24;95218.53;5067101;28;20231;-82
2021/10/15 04:11:05;;;;;;;4.90;4.50;;;10.80;77.50;;;10.14;64.37;95209.03;5044868;28;20227;-81
2021/10/15 04:13:32;;;;;;;5.05;4.40;;;10.70;77.30;;;10.17;64.19;95206.88;5034806;28;20275;-81
2021/10/15 04:16:02;;;;;;;7.50;6.35;;;10.70;77.30;;;10.17;64.29;95211.31;5050590;28;20220;-81
2021/10/15 04:18:30;;;;;;;11.95;8.65;;;10.70;77.30;;;10.16;64.32;95207.84;5067353;28;20203;-81
2021/10/15 04:20:57;;;;;;;11.20;7.50;;;10.70;77.40;;;10.15;64.31;95203.59;5051088;28;20685;-81
2021/10/15 04:23:24;;;;;;;50.75;27.35;;;10.70;77.40;;;10.16;64.26;95200.00;5034823;28;20202;-82
2021/10/15 04:25:52;;;;;;;26.15;16.60;;;10.70;77.40;;;10.16;64.53;95197.38;5032787;28;20203;-80
2021/10/15 04:28:19;;;;;;;11.25;8.15;;;10.70;77.50;;;10.17;64.38;95200.81;5034475;28;20290;-81
2021/10/15 04:30:47;;;;;;;7.40;5.22;;;10.70;77.50;;;10.18;64.32;95199.81;5017675;28;20250;-81
2021/10/15 04:33:15;;;;;;;5.30;4.20;;;10.70;77.50;;;10.20;64.44;95197.81;5034448;28;20215;-81
2021/10/15 04:35:42;;;;;;;5.55;4.72;;;10.70;77.50;;;10.20;64.40;95192.56;5030506;28;20266;-80
2021/10/15 04:38:10;;;;;;;4.38;3.85;;;10.70;77.50;;;10.21;64.40;95192.38;5031059;28;20709;-80
2021/10/15 04:40:38;;;;;;;4.78;4.28;;;10.70;77.50;;;10.22;64.12;95187.97;5014621;28;20286;-81
2021/10/15 04:43:06;;;;;;;4.88;3.75;;;10.70;77.50;;;10.22;64.42;95188.78;5014265;28;20693;-80
2021/10/15 04:45:33;;;;;;;4.68;4.28;;;10.70;77.50;;;10.24;64.13;95186.78;5046610;28;20219;-80
2021/10/15 04:48:02;;;;;;;3.63;3.33;;;10.70;77.40;;;10.20;64.07;95180.28;5051086;28;20192;-81
2021/10/15 04:50:32;;;;;;;4.45;3.58;;;10.70;77.40;;;10.25;64.13;95174.47;5034362;28;20195;-81
2021/10/15 04:53:00;;;;;;;4.10;3.50;;;10.70;77.40;;;10.26;64.11;95178.75;5033904;28;20281;-80
2021/10/15 04:55:27;;;;;;;3.58;3.20;;;10.70;77.40;;;10.27;64.29;95177.75;5047125;28;20663;-80
2021/10/15 04:57:57;;;;;;;3.40;3.10;;;10.80;77.50;;;10.25;64.06;95175.31;5043764;28;20560;-81
2021/10/15 05:00:24;;;;;;;4.03;3.60;;;10.70;77.40;;;10.24;64.17;95175.47;5046917;28;20292;-80
2021/10/15 05:02:52;;;;;;;3.50;3.20;;;10.70;77.40;;;10.22;63.98;95173.03;5063918;28;20290;-81
2021/10/15 05:05:21;;;;;;;4.07;3.67;;;10.70;77.40;;;10.24;64.26;95168.44;5049585;28;20556;-81
2021/10/15 05:07:48;;;;;;;3.75;3.35;;;10.70;77.40;;;10.23;64.21;95164.19;5017807;28;20230;-81
2021/10/15 05:10:16;;;;;;;3.35;3.05;;;10.80;77.50;;;10.24;64.00;95167.59;5050696;28;20544;-81
2021/10/15 05:12:44;;;;;;;3.97;3.35;;;10.70;77.40;;;10.22;64.30;95165.19;5036346;28;20236;-81
2021/10/15 05:15:11;;;;;;;3.40;3.10;;;10.70;77.40;;;10.22;64.31;95159.94;5037209;28;20565;-81
2021/10/15 05:17:39;;;;;;;3.70;3.28;;;10.70;77.40;;;10.21;64.38;95168.78;5036933;28;20228;-80
2021/10/15 05:20:11;;;;;;;3.53;3.13;;;10.70;77.50;;;10.19;64.33;95154.25;5070729;28;20199;-80
2021/10/15 05:22:38;;;;;;;3.22;2.92;;;10.70;77.50;;;10.22;64.32;95170.44;5037238;28;20642;-80
2021/10/15 05:25:07;;;;;;;3.08;2.78;;;10.70;77.40;;;10.22;64.16;95169.63;5053587;28;20598;-80
2021/10/15 05:27:35;;;;;;;3.40;3.10;;;10.70;77.50;;;10.22;64.23;95167.81;5053955;28;20569;-80
2021/10/15 05:30:05;;;;;;;3.50;3.20;;;10.70;77.40;;;10.22;64.15;95156.53;5052408;28;20314;-79
2021/10/15 05:32:33;;;;;;;3.30;3.00;;;10.70;77.50;;;10.24;64.36;95154.50;5052881;28;20227;-79
2021/10/15 05:35:00;;;;;;;3.55;3.00;;;10.70;77.40;;;10.22;64.57;95152.06;5053806;28;20207;-80
2021/10/15 05:37:27;;;;;;;4.20;2.90;;;10.80;77.50;;;10.22;64.43;95156.53;5037442;28;20207;-81
2021/10/15 05:39:54;;;;;;;3.13;2.83;;;10.70;77.50;;;10.26;64.16;95157.75;5036965;28;20204;-81
2021/10/15 05:42:22;;;;;;;3.38;3.08;;;10.70;77.50;;;10.27;64.05;95155.97;5036974;28;20232;-80
2021/10/15 05:44:49;;;;;;;3.70;3.10;;;10.80;77.60;;;10.26;64.24;95152.53;5037404;28;20194;-79
2021/10/15 05:47:17;;;;;;;3.85;3.42;;;10.70;77.50;;;10.30;64.17;95161.66;5049542;28;20272;-79
2021/10/15 05:49:44;;;;;;;3.50;3.05;;;10.80;77.60;;;10.32;64.39;95154.41;5020055;28;20552;-79
2021/10/15 05:52:14;;;;;;;3.10;2.80;;;10.80;77.60;;;10.34;64.39;95151.59;5035483;28;20220;-78
2021/10/15 05:55:05;;;;;;;3.10;2.80;;;10.80;77.70;;;10.37;64.11;95153.88;5070912;28;20574;-78
2021/10/15 06:00:04;;;;;;;4.10;3.25;;;10.80;77.70;;;10.43;64.12;95158.41;5037652;28;20271;-78
2021/10/15 06:02:42;;;;;;;3.38;3.08;;;10.90;77.70;;;10.45;64.10;95155.59;5033198;28;20231;-78
2021/10/15 06:15:51;;;;;;;4.22;3.30;;;10.90;78.60;;;10.59;63.98;95149.50;5038369;28;20282;-79
2021/10/15 06:18:23;;;;;;;5.70;3.22;;;11.00;77.90;;;10.63;64.29;95142.06;5033270;28;20211;-79
2021/10/15 06:20:51;;;;;;;5.07;3.80;;;11.00;77.90;;;10.67;64.15;95143.34;5026784;28;20253;-78
2021/10/15 06:23:20;;;;;;;4.05;3.63;;;11.00;77.90;;;10.70;64.29;95142.94;5016081;28;20220;-79
2021/10/15 06:25:47;;;;;;;18.83;11.45;;;11.00;77.80;;;10.72;64.51;95160.13;5033373;28;20208;-79
2021/10/15 06:28:15;;;;;;;9.52;7.53;;;11.10;77.90;;;10.71;64.49;95136.69;5014995;28;20204;-79
2021/10/15 06:30:43;;;;;;;7.82;5.95;;;11.10;77.80;;;10.80;64.18;95135.59;5049130;28;20270;-78
2021/10/15 06:33:10;;;;;;;6.18;5.57;;;11.10;77.80;;;10.84;64.10;95141.25;5050501;28;20251;-78
2021/10/15 06:35:37;;;;;;;4.90;4.38;;;11.20;78.00;;;10.90;64.15;95124.78;5016868;28;20584;-79
2021/10/15 06:38:07;;;;;;;4.38;3.95;;;11.20;77.90;;;10.97;64.03;95130.88;5049719;28;20199;-80
2021/10/15 06:40:35;;;;;;;3.38;3.05;;;11.30;78.10;;;11.01;63.90;95131.31;5047123;28;20211;-79
2021/10/15 06:43:07;;;;;;;3.28;2.97;;;11.40;78.20;;;11.08;64.12;95134.00;5048204;28;20212;-79
2021/10/15 06:45:36;;;;;;;3.20;2.90;;;11.40;78.20;;;11.15;64.12;95132.25;5065037;28;20283;-79
2021/10/15 06:48:05;;;;;;;4.18;2.88;;;11.40;78.20;;;11.23;64.22;95136.53;5015786;28;20203;-79
2021/10/15 06:50:32;;;;;;;3.20;2.90;;;11.40;78.10;;;11.27;64.02;95127.28;5051226;28;20206;-79
2021/10/15 06:53:00;;;;;;;3.40;3.08;;;11.50;78.20;;;11.33;64.00;95132.59;5034009;28;20681;-80
2021/10/15 06:55:27;;;;;;;3.20;2.90;;;11.60;78.20;;;11.37;63.98;95135.63;5051316;28;20253;-79
2021/10/15 06:57:54;;;;;;;4.53;3.10;;;11.60;78.10;;;11.43;63.81;95137.50;5035203;28;20208;-80
2021/10/15 07:00:21;;;;;;;3.42;3.00;;;11.60;78.00;;;11.48;63.71;95134.31;5057160;28;20200;-79
2021/10/15 07:02:48;;;;;;;3.28;2.97;;;11.70;78.10;;;11.53;63.82;95129.28;5059818;28;20299;-79
2021/10/15 07:05:16;;;;;;;3.83;3.53;;;11.80;78.10;;;11.61;63.78;95128.31;5034364;28;20207;-80
2021/10/15 07:07:44;;;;;;;3.17;2.80;;;11.80;78.00;;;11.69;63.82;95130.78;5048789;28;20245;-79
2021/10/15 07:10:12;;;;;;;3.35;2.92;;;11.90;78.10;;;11.77;63.80;95125.38;5033542;28;20204;-80
2021/10/15 07:12:42;;;;;;;3.25;2.88;;;11.90;78.10;;;11.86;63.85;95133.91;5033481;28;20227;-79
2021/10/15 07:15:14;;;;;;;3.05;2.75;;;12.00;78.10;;;11.92;63.77;95127.88;5050604;28;20245;-79
2021/10/15 07:17:43;;;;;;;3.25;2.95;;;12.10;78.10;;;12.03;63.36;95126.56;5033549;28;20219;-79
2021/10/15 07:20:10;;;;;;;3.22;2.92;;;12.20;78.20;;;12.15;63.37;95134.69;5059470;28;20646;-80
2021/10/15 07:22:38;;;;;;;3.22;2.92;;;12.20;78.20;;;12.23;63.58;95131.91;5038979;28;20224;-79
2021/10/15 07:25:07;;;;;;;3.17;2.88;;;12.30;78.10;;;12.29;63.54;95131.13;5016074;28;20287;-79
2021/10/15 07:27:36;;;;;;;3.03;2.75;;;12.40;78.10;;;12.44;63.31;95133.59;5045714;28;20247;-80
2021/10/15 07:30:05;;;;;;;3.90;2.53;;;12.50;78.10;;;12.57;63.38;95129.38;5032626;28;20278;-79
2021/10/15 07:32:36;;;;;;;2.72;2.53;;;12.60;78.90;;;12.68;63.26;95133.25;5057202;28;20257;-80
2021/10/15 07:35:06;;;;;;;2.95;2.65;;;12.70;78.10;;;12.80;63.14;95129.00;5014745;28;20295;-79
2021/10/15 07:37:33;;;;;;;2.63;2.42;;;12.80;78.10;;;12.92;63.09;95126.59;5048950;28;20302;-79
2021/10/15 07:40:00;;;;;;;2.88;2.50;;;12.90;78.10;;;13.02;62.97;95118.31;5032734;28;20215;-79
2021/10/15 07:42:28;;;;;;;3.60;2.65;;;13.00;78.20;;;13.11;62.87;95110.00;5032844;28;20969;-79
2021/10/15 07:44:55;;;;;;;2.78;2.50;;;13.10;78.10;;;13.26;62.83;95115.06;5033204;28;20196;-80
2021/10/15 07:47:22;;;;;;;3.10;2.70;;;13.20;78.00;;;13.34;62.84;95107.97;5066909;28;20227;-79
2021/10/15 07:49:50;;;;;;;2.95;2.65;;;13.30;77.90;;;13.38;62.19;95109.22;5066600;28;20369;-80
2021/10/15 07:52:17;;;;;;;2.80;2.60;;;13.50;77.80;;;13.43;62.28;95104.94;5065205;28;20230;-79
2021/10/15 07:54:45;;;;;;;2.90;2.70;;;13.50;77.40;;;13.44;62.15;95098.66;5029436;28;20241;-80
2021/10/15 07:57:13;;;;;;;2.72;2.53;;;13.50;77.10;;;13.44;62.19;95103.94;5047757;28;20224;-79
2021/10/15 07:59:41;;;;;;;2.40;2.20;;;13.60;77.20;;;13.47;62.07;95107.97;5057805;28;20671;-79
2021/10/15 08:02:09;;;;;;;2.45;2.25;;;13.60;77.20;;;13.45;62.23;95102.94;5018334;28;20284;-80
2021/10/15 08:04:37;;;;;;;2.55;2.20;;;13.70;77.20;;;13.49;62.19;95105.97;5049669;28;20201;-78
2021/10/15 08:07:08;;;;;;;2.58;2.10;;;13.70;77.20;;;13.50;61.75;95110.22;5035260;28;20803;-79
2021/10/15 08:09:36;;;;;;;2.42;2.22;;;13.70;77.20;;;13.47;61.89;95105.34;5034279;28;20227;-78
2021/10/15 08:12:03;;;;;;;2.55;2.35;;;13.70;77.00;;;13.44;61.64;95114.47;5034807;28;20312;-79
2021/10/15 08:14:31;;;;;;;2.10;1.95;;;13.70;76.80;;;13.40;61.20;95113.28;5033931;28;20406;-78
2021/10/15 08:16:58;;;;;;;2.58;2.38;;;13.70;76.60;;;13.33;61.57;95112.44;5067328;28;20243;-79
2021/10/15 08:19:39;;;;;;;2.20;2.00;;;13.70;76.60;;;13.31;61.70;95100.50;5052993;28;20199;-79
2021/10/15 08:22:07;;;;;;;2.50;2.30;;;13.60;76.50;;;13.32;61.73;95100.28;5034008;28;20223;-79
2021/10/15 08:24:35;;;;;;;2.80;2.60;;;13.60;76.70;;;13.34;61.98;95105.34;5048930;28;20203;-80
2021/10/15 08:27:05;;;;;;;2.75;2.55;;;13.70;77.00;;;13.39;61.82;95105.56;5050973;28;20233;-78
2021/10/15 08:29:37;;;;;;;2.75;2.50;;;13.60;76.90;;;13.40;61.90;95086.09;5034566;28;20219;-79
2021/10/15 08:32:07;;;;;;;2.72;2.53;;;13.50;77.10;;;13.48;61.59;95099.06;5034111;28;20693;-79
2021/10/15 08:34:35;;;;;;;2.55;2.35;;;13.50;77.10;;;13.53;61.72;95096.63;5034307;28;20195;-79
2021/10/15 08:37:04;;;;;;;2.50;2.25;;;13.60;77.20;;;13.58;61.35;95088.91;5034201;28;20223;-81
2021/10/15 08:39:32;;;;;;;2.20;1.90;;;13.60;77.20;;;13.61;61.40;95093.78;5034190;28;20187;-80
2021/10/15 08:42:00;;;;;;;1.73;1.63;;;13.70;77.30;;;13.69;61.49;95087.47;5050574;28;20227;-82
2021/10/15 08:44:42;;;;;;;1.80;1.70;;;13.70;77.30;;;13.80;61.45;95095.75;5033805;28;20245;-79
2021/10/15 08:47:14;;;;;;;2.78;2.50;;;13.80;77.30;;;13.83;61.36;95096.16;5033832;28;20234;-79
2021/10/15 08:50:01;;;;;;;3.17;2.90;;;13.80;77.30;;;13.86;61.26;95098.38;5038825;28;20543;-78
2021/10/15 08:52:28;;;;;;;3.05;2.75;;;13.90;77.40;;;13.90;61.42;95102.22;5038034;28;20223;-79
2021/10/15 08:54:55;;;;;;;3.20;2.90;;;13.90;77.40;;;13.93;61.20;95093.88;5050391;28;20223;-79
2021/10/15 08:57:22;;;;;;;2.95;2.60;;;13.90;77.30;;;13.98;61.03;95093.25;5059866;28;20238;-78
2021/10/15 08:59:51;;;;;;;3.22;2.92;;;14.00;77.40;;;14.05;61.46;95087.97;5018174;28;20579;-78
2021/10/15 09:02:21;;;;;;;2.50;2.30;;;14.00;77.30;;;14.11;61.27;95083.69;5035803;28;20302;-79
2021/10/15 09:04:58;;;;;;;3.20;2.90;;;14.10;77.50;;;14.19;61.35;95089.53;5018398;28;20196;-79
2021/10/15 09:07:27;;;;;;;2.42;2.22;;;14.10;77.30;;;14.26;61.25;95092.16;5027009;28;20223;-79
2021/10/15 09:10:16;;;;;;;2.90;2.28;;;14.20;77.10;;;14.33;61.01;95089.47;5049483;28;20196;-79
2021/10/15 09:12:56;;;;;;;2.60;2.40;;;14.20;76.80;;;14.43;61.39;95084.56;5033845;28;20702;-79
2021/10/15 09:15:36;;;;;;;2.65;2.45;;;14.30;76.80;;;14.49;60.83;95082.88;5025044;28;20195;-79
2021/10/15 09:18:11;;;;;;;3.10;2.80;;;14.40;76.70;;;14.55;60.92;95077.56;5070534;28;20233;-80
2021/10/15 09:20:39;;;;;;;5.07;3.47;;;14.40;76.70;;;14.64;61.17;95072.84;5037825;28;20199;-80
2021/10/15 09:23:13;;;;;;;3.17;2.90;;;14.50;77.00;;;14.71;61.11;95070.19;5037858;28;20195;-79
2021/10/15 09:25:44;;;;;;;3.83;3.38;;;14.60;77.10;;;14.78;60.99;95070.16;5036284;28;20253;-79
2021/10/15 09:28:22;;;;;;;3.45;2.95;;;14.60;77.00;;;14.85;61.05;95073.53;5035103;28;20191;-80
2021/10/15 09:30:51;;;;;;;5.05;2.88;;;14.70;77.00;;;14.92;60.98;95071.66;5052095;28;20195;-79
2021/10/15 09:33:20;;;;;;;2.65;2.45;;;14.80;76.80;;;14.99;60.68;95069.78;5051711;28;20265;-79
2021/10/15 09:35:47;;;;;;;3.15;2.85;;;14.80;76.70;;;15.04;60.82;95062.03;5036621;28;20199;-79
2021/10/15 09:38:15;;;;;;;4.00;2.70;;;14.90;76.90;;;15.14;60.51;95068.66;5037391;28;20540;-80
2021/10/15 09:40:48;;;;;;;3.35;2.50;;;15.00;76.70;;;15.19;60.14;95064.31;5036011;28;20198;-80
2021/10/15 09:43:16;;;;;;;2.70;2.50;;;15.10;76.30;;;15.26;60.24;95066.91;5034486;28;20192;-79
2021/10/15 09:45:50;;;;;;;3.08;2.63;;;15.20;76.60;;;15.34;60.24;95060.53;5034612;28;20303;-79
2021/10/15 09:48:24;;;;;;;2.88;2.58;;;15.10;76.90;;;15.40;60.19;95058.88;5023944;28;20206;-79
2021/10/15 09:51:15;;;;;;;3.78;2.80;;;15.20;76.50;;;15.47;60.13;95054.31;5053933;28;20199;-79
2021/10/15 09:54:10;;;;;;;3.35;3.00;;;15.30;76.40;;;15.53;60.20;95056.88;5037552;28;20215;-79
2021/10/15 09:56:52;;;;;;;2.72;2.53;;;15.40;76.30;;;15.63;59.66;95055.59;5053787;28;20211;-80
2021/10/15 09:59:19;;;;;;;2.72;2.50;;;15.50;76.40;;;15.69;60.08;95041.47;5052923;28;20187;-80
2021/10/15 10:01:46;;;;;;;2.42;2.17;;;15.50;76.40;;;15.79;59.48;95048.91;5037359;28;20255;-80
2021/10/15 10:04:14;;;;;;;2.75;2.00;;;15.70;76.10;;;15.86;58.87;95046.22;5021143;28;20195;-80
2021/10/15 10:06:42;;;;;;;2.22;2.03;;;15.70;75.70;;;15.91;59.09;95039.22;5037245;28;20208;-80
2021/10/15 10:09:10;;;;;;;2.25;2.05;;;15.70;75.60;;;15.98;59.25;95042.59;5053563;28;20195;-81
2021/10/15 10:11:37;;;;;;;2.40;1.88;;;15.80;75.70;;;16.05;58.71;95042.53;5020616;28;20223;-82
2021/10/15 10:14:20;;;;;;;2.20;2.00;;;15.80;75.50;;;16.12;59.01;95035.28;5037641;28;20211;-79
2021/10/15 10:16:50;;;;;;;2.05;1.90;;;16.00;75.30;;;16.19;58.83;95035.22;5037197;28;20219;-80
2021/10/15 10:19:21;;;;;;;2.00;1.80;;;16.00;75.30;;;16.28;58.64;95036.53;5037498;28;20187;-79
2021/10/15 10:21:48;;;;;;;1.88;1.75;;;16.10;75.40;;;16.35;58.85;95036.44;5016592;28;20228;-79
2021/10/15 10:24:26;;;;;;;1.77;1.67;;;16.10;75.30;;;16.44;58.66;95031.63;5034544;28;20669;-79
2021/10/15 10:26:59;;;;;;;1.60;1.50;;;16.20;74.90;;;16.46;58.07;95019.75;5020468;28;20587;-80
2021/10/15 10:29:27;;;;;;;1.70;1.60;;;16.30;74.80;;;16.55;58.32;95014.16;5037833;28;20569;-79
2021/10/15 10:32:17;;;;;;;1.80;1.70;;;16.40;75.00;;;16.58;56.90;95014.50;5052130;28;20306;-79
2021/10/15 10:34:44;;;;;;;2.60;1.60;;;16.40;74.30;;;16.63;57.38;95016.47;5036087;28;20293;-78
2021/10/15 10:37:16;;;;;;;2.53;1.70;;;16.40;74.20;;;16.68;57.01;95013.16;5034024;28;20211;-78
2021/10/15 10:40:09;;;;;;;2.65;1.60;;;16.50;73.80;;;16.73;57.04;95015.91;5049270;28;20191;-79
2021/10/15 10:43:03;;;;;;;1.95;1.55;;;16.60;73.70;;;16.79;57.32;95007.06;5045187;28;20706;-80
2021/10/15 10:45:31;;;;;;;1.55;1.45;;;16.60;74.00;;;16.88;56.92;95007.53;5023883;28;20712;-79